Terminal Aerodrome Forecast
Issued by NWS Chicago, IL

Home | Current Version | Previous Version | Graphics & Text | Print | Product List | Glossary On
Versions: 1 2 3 4 5 6 7 8 9 10 11 12 13 14 15 16 17 18 19 20 21 22 23 24 25 26 27 28
758
FTUS43 KLOT 172320
TAFRFD
TAF
KRFD 172320Z 1800/1824 25014G24KT P6SM FEW025 BKN040
     FM180200 26012G18KT P6SM SCT025 BKN040
     FM180600 28010KT P6SM SCT040
     FM181500 29012G18KT P6SM SCT040=

USA.gov is the U.S. government's official web portal to all federal, state and local government web resources and services.